createdAt,value
2017-10-06T00:00:07.674Z,10.57
2017-10-06T00:01:17.922Z,10.49
2017-10-06T00:02:28.169Z,10.57
2017-10-06T00:03:38.415Z,10.57
2017-10-06T00:04:48.926Z,10.55
2017-10-06T00:05:58.870Z,10.57
2017-10-06T00:07:09.130Z,10.57
2017-10-06T00:08:19.406Z,10.57
2017-10-06T00:09:29.643Z,10.57
2017-10-06T00:10:39.558Z,10.53
2017-10-06T00:11:49.808Z,10.55
2017-10-06T00:12:59.737Z,10.58
2017-10-06T00:14:09.992Z,10.62
2017-10-06T00:15:19.626Z,10.59
2017-10-06T00:16:30.120Z,10.61
2017-10-06T00:17:40.366Z,10.65
2017-10-06T00:18:50.294Z,10.61
2017-10-06T00:19:59.931Z,10.64
2017-10-06T00:21:09.856Z,10.61
2017-10-06T00:22:20.042Z,10.62
2017-10-06T00:23:30.289Z,10.65
2017-10-06T00:24:40.545Z,10.65
2017-10-06T00:25:50.481Z,10.57
2017-10-06T00:27:00.406Z,10.57
2017-10-06T00:28:10.591Z,10.58
2017-10-06T00:29:20.831Z,10.55
2017-10-06T00:30:31.081Z,10.49
2017-10-06T00:31:41.335Z,10.45
2017-10-06T00:32:51.263Z,10.41
2017-10-06T00:34:01.754Z,10.51
2017-10-06T00:35:12.020Z,10.48
2017-10-06T00:36:21.964Z,10.51
2017-10-06T00:37:32.218Z,10.42
2017-10-06T00:38:42.157Z,10.39
2017-10-06T00:39:52.332Z,10.46
2017-10-06T00:41:02.576Z,10.43
2017-10-06T00:42:12.831Z,10.46
2017-10-06T00:43:23.073Z,10.45
2017-10-06T00:44:33.317Z,10.41
2017-10-06T00:45:43.812Z,10.42
2017-10-06T00:46:53.751Z,10.46
2017-10-06T00:48:03.699Z,10.43
2017-10-06T00:49:13.946Z,10.45
2017-10-06T00:50:24.187Z,10.41
2017-10-06T00:51:34.684Z,10.43
2017-10-06T00:52:44.926Z,10.45
2017-10-06T00:53:55.167Z,10.46
2017-10-06T00:55:05.411Z,10.45
2017-10-06T00:56:15.659Z,10.43
2017-10-06T00:57:25.838Z,10.45
2017-10-06T00:58:35.450Z,10.43
2017-10-06T00:59:45.386Z,10.45
2017-10-06T01:00:55.321Z,10.43
2017-10-06T01:02:05.570Z,10.45
2017-10-06T01:03:16.063Z,10.43
2017-10-06T01:04:25.994Z,10.49
2017-10-06T01:05:35.923Z,10.39
2017-10-06T01:06:45.894Z,10.45
2017-10-06T01:07:56.152Z,10.43
2017-10-06T01:09:06.686Z,10.39
2017-10-06T01:10:16.991Z,10.43
2017-10-06T01:11:26.965Z,10.43
2017-10-06T01:12:37.207Z,10.39
2017-10-06T01:13:47.455Z,10.42
2017-10-06T01:14:57.945Z,10.49
2017-10-06T01:16:08.205Z,10.43
2017-10-06T01:17:18.135Z,10.43
2017-10-06T01:18:28.385Z,10.39
2017-10-06T01:19:38.627Z,10.41
2017-10-06T01:20:49.125Z,10.34
2017-10-06T01:21:59.973Z,10.39
2017-10-06T01:23:10.269Z,10.39
2017-10-06T01:24:20.514Z,10.36
2017-10-06T01:25:30.756Z,10.38
2017-10-06T01:26:40.952Z,10.34
2017-10-06T01:27:50.890Z,10.38
2017-10-06T01:29:01.543Z,10.39
2017-10-06T01:30:11.471Z,10.41
2017-10-06T01:31:21.790Z,10.36
2017-10-06T01:32:32.312Z,10.36
2017-10-06T01:33:42.557Z,10.34
2017-10-06T01:34:52.800Z,10.33
2017-10-06T01:36:02.736Z,10.38
2017-10-06T01:37:12.687Z,10.34
2017-10-06T01:38:23.240Z,10.31
2017-10-06T01:39:33.479Z,10.41
2017-10-06T01:40:43.411Z,10.41
2017-10-06T01:41:53.668Z,10.39
2017-10-06T01:43:03.908Z,10.34
2017-10-06T01:44:14.135Z,10.39
2017-10-06T01:45:24.064Z,10.34
2017-10-06T01:46:33.995Z,10.36
2017-10-06T01:47:43.927Z,10.33
2017-10-06T01:48:54.175Z,10.34
2017-10-06T01:50:04.684Z,10.3
2017-10-06T01:51:14.612Z,10.34
2017-10-06T01:52:24.865Z,10.39
2017-10-06T01:53:35.109Z,10.39
2017-10-06T01:54:45.362Z,10.3
2017-10-06T01:55:55.576Z,10.36
2017-10-06T01:57:05.823Z,10.33
2017-10-06T01:58:15.753Z,10.39
2017-10-06T01:59:25.997Z,10.41
2017-10-06T02:00:36.247Z,10.31
2017-10-06T02:01:46.739Z,10.34
2017-10-06T02:02:56.355Z,10.3
2017-10-06T02:04:06.617Z,10.38
2017-10-06T02:05:16.537Z,10.36
2017-10-06T02:06:26.145Z,10.34
2017-10-06T02:07:36.640Z,10.41
2017-10-06T02:08:46.895Z,10.36
2017-10-06T02:09:57.145Z,10.39
2017-10-06T02:11:07.073Z,10.36
2017-10-06T02:12:17.320Z,10.39
2017-10-06T02:13:27.503Z,10.38
2017-10-06T02:14:37.794Z,10.39
2017-10-06T02:15:47.733Z,10.38
2017-10-06T02:16:57.670Z,10.34
2017-10-06T02:18:07.301Z,10.34
2017-10-06T02:19:17.477Z,10.42
2017-10-06T02:20:27.412Z,10.25
2017-10-06T02:21:37.341Z,10.38
2017-10-06T02:22:47.594Z,10.38
2017-10-06T02:23:57.525Z,10.39
2017-10-06T02:25:07.703Z,10.38
2017-10-06T02:26:17.638Z,10.34
2017-10-06T02:27:27.879Z,10.34
2017-10-06T02:28:38.124Z,10.34
2017-10-06T02:29:48.375Z,10.39
2017-10-06T02:30:58.252Z,10.39
2017-10-06T02:32:08.501Z,10.36
2017-10-06T02:33:18.751Z,10.33
2017-10-06T02:34:28.679Z,10.31
2017-10-06T02:35:38.929Z,10.31
2017-10-06T02:36:49.431Z,10.41
2017-10-06T02:37:59.680Z,10.31
2017-10-06T02:39:09.942Z,10.33
2017-10-06T02:40:20.192Z,10.34
2017-10-06T02:41:30.126Z,10.31
2017-10-06T02:42:40.628Z,10.33
2017-10-06T02:43:50.561Z,10.38
2017-10-06T02:45:00.809Z,10.41
2017-10-06T02:46:10.754Z,10.31
2017-10-06T02:47:21.000Z,10.25
2017-10-06T02:48:31.177Z,10.33
2017-10-06T02:49:41.106Z,10.18
2017-10-06T02:50:51.045Z,10.27
2017-10-06T02:52:01.291Z,10.24
2017-10-06T02:53:11.222Z,10.18
2017-10-06T02:54:21.411Z,10.25
2017-10-06T02:55:31.347Z,10.2
2017-10-06T02:56:40.967Z,10.25
2017-10-06T02:57:50.889Z,10.25
2017-10-06T02:59:01.132Z,10.23
2017-10-06T03:00:11.633Z,10.21
2017-10-06T03:01:21.557Z,10.2
2017-10-06T03:02:31.494Z,10.36
2017-10-06T03:03:41.742Z,10.27
2017-10-06T03:04:51.671Z,10.21
2017-10-06T03:06:02.161Z,10.27
2017-10-06T03:07:12.094Z,10.18
2017-10-06T03:08:22.027Z,10.18
2017-10-06T03:09:31.960Z,10.25
2017-10-06T03:10:41.893Z,10.25
2017-10-06T03:11:52.072Z,10.36
2017-10-06T03:13:02.319Z,10.28
2017-10-06T03:14:12.548Z,10.31
2017-10-06T03:15:22.478Z,10.28
2017-10-06T03:16:32.424Z,10.25
2017-10-06T03:17:42.598Z,10.39
2017-10-06T03:18:52.534Z,10.38
2017-10-06T03:20:02.461Z,10.39
2017-10-06T03:21:12.716Z,10.36
2017-10-06T03:22:22.961Z,10.31
2017-10-06T03:23:33.463Z,10.36
2017-10-06T03:24:43.713Z,10.3
2017-10-06T03:25:53.638Z,10.34
2017-10-06T03:27:03.881Z,10.41
2017-10-06T03:28:14.128Z,10.31
2017-10-06T03:29:24.632Z,10.33
2017-10-06T03:30:34.570Z,10.38
2017-10-06T03:31:44.516Z,10.23
2017-10-06T03:32:54.759Z,10.24
2017-10-06T03:34:05.021Z,10.3
2017-10-06T03:35:15.218Z,10.33
2017-10-06T03:36:25.462Z,10.3
2017-10-06T03:37:35.401Z,10.36
2017-10-06T03:38:45.348Z,10.31
2017-10-06T03:39:55.591Z,10.39
2017-10-06T03:41:05.792Z,10.43
2017-10-06T03:42:15.731Z,10.34
2017-10-06T03:43:25.659Z,10.36
2017-10-06T03:44:35.901Z,10.34
2017-10-06T03:45:45.831Z,10.38
2017-10-06T03:46:56.017Z,10.34
2017-10-06T03:48:06.276Z,10.36
2017-10-06T03:49:16.533Z,10.38
2017-10-06T03:50:26.782Z,10.38
2017-10-06T03:51:37.036Z,10.34
2017-10-06T03:52:47.227Z,10.38
2017-10-06T03:53:57.466Z,10.34
2017-10-06T03:55:07.724Z,10.39
2017-10-06T03:56:17.657Z,10.31
2017-10-06T03:57:27.590Z,10.31
2017-10-06T03:58:38.131Z,10.21
2017-10-06T03:59:48.399Z,10.15
2017-10-06T04:00:58.640Z,10.05
2017-10-06T04:02:08.568Z,10.02
2017-10-06T04:03:18.815Z,9.94
2017-10-06T04:04:29.058Z,9.95
2017-10-06T04:05:39.298Z,9.97
2017-10-06T04:06:49.556Z,10
2017-10-06T04:07:59.807Z,9.97
2017-10-06T04:09:10.060Z,10
2017-10-06T04:10:20.558Z,10.07
2017-10-06T04:11:30.792Z,10.05
2017-10-06T04:12:41.037Z,10.17
2017-10-06T04:13:51.283Z,10.07
2017-10-06T04:15:01.532Z,10.07
2017-10-06T04:16:12.016Z,10.05
2017-10-06T04:17:22.255Z,10.07
2017-10-06T04:18:32.508Z,10.1
2017-10-06T04:19:42.747Z,10.12
2017-10-06T04:20:52.682Z,10.12
2017-10-06T04:22:03.190Z,10.13
2017-10-06T04:23:12.816Z,10.15
2017-10-06T04:24:22.745Z,10.13
2017-10-06T04:25:32.984Z,10.13
2017-10-06T04:26:42.920Z,10.06
2017-10-06T04:27:53.112Z,10
2017-10-06T04:29:02.723Z,10.07
2017-10-06T04:30:12.658Z,10.02
2017-10-06T04:31:22.900Z,10
2017-10-06T04:32:33.156Z,9.97
2017-10-06T04:33:43.345Z,9.99
2017-10-06T04:34:53.584Z,10
2017-10-06T04:36:03.838Z,9.99
2017-10-06T04:37:14.081Z,9.99
2017-10-06T04:38:24.322Z,9.97
2017-10-06T04:39:34.512Z,9.92
2017-10-06T04:40:44.766Z,9.92
2017-10-06T04:41:55.010Z,9.97
2017-10-06T04:43:05.268Z,10
2017-10-06T04:44:15.205Z,9.92
2017-10-06T04:45:25.705Z,9.92
2017-10-06T04:46:35.985Z,9.95
2017-10-06T04:47:45.966Z,10
2017-10-06T04:48:56.213Z,10
2017-10-06T04:50:06.164Z,9.94
2017-10-06T04:51:16.672Z,9.99
2017-10-06T04:52:26.920Z,9.92
2017-10-06T04:53:37.161Z,10
2017-10-06T04:54:47.415Z,10.05
2017-10-06T04:55:57.668Z,10
2017-10-06T04:57:07.917Z,10.02
2017-10-06T04:58:18.154Z,10.09
2017-10-06T04:59:28.077Z,10.07
2017-10-06T05:00:38.004Z,10.15
2017-10-06T05:01:47.958Z,10.02
2017-10-06T05:02:58.454Z,10.07
2017-10-06T05:04:08.705Z,10.09
2017-10-06T05:05:18.946Z,10.05
2017-10-06T05:06:29.196Z,10.07
2017-10-06T05:07:38.815Z,10.06
2017-10-06T05:08:48.997Z,10.09
2017-10-06T05:09:58.952Z,10.05
2017-10-06T05:11:09.194Z,10.1
2017-10-06T05:12:19.443Z,10.12
2017-10-06T05:13:29.689Z,10.21
2017-10-06T05:14:40.182Z,10.1
2017-10-06T05:15:50.106Z,10.21
2017-10-06T05:17:00.358Z,10.09
2017-10-06T05:18:10.605Z,10.07
2017-10-06T05:19:20.847Z,10.07
2017-10-06T05:20:31.024Z,10.13
2017-10-06T05:21:41.276Z,10.18
2017-10-06T05:22:51.537Z,10.07
2017-10-06T05:24:01.799Z,10.2
2017-10-06T05:25:12.062Z,10.2
2017-10-06T05:26:21.927Z,10.21
2017-10-06T05:27:32.191Z,10.24
2017-10-06T05:28:42.121Z,10.28
2017-10-06T05:29:52.368Z,10.21
2017-10-06T05:31:02.617Z,10.28
2017-10-06T05:32:13.106Z,10.21
2017-10-06T05:33:23.031Z,10.25
2017-10-06T05:34:32.960Z,10.2
2017-10-06T05:35:43.202Z,10.21
2017-10-06T05:36:53.470Z,10.2
2017-10-06T05:38:03.966Z,10.21
2017-10-06T05:39:14.214Z,10.25
2017-10-06T05:40:24.156Z,10.24
2017-10-06T05:41:34.416Z,10.18
2017-10-06T05:42:44.664Z,10.24
2017-10-06T05:43:55.168Z,10.21
2017-10-06T05:45:05.110Z,10.23
2017-10-06T05:46:15.365Z,10.24
2017-10-06T05:47:25.611Z,10.23
2017-10-06T05:48:35.863Z,10.27
2017-10-06T05:49:46.090Z,10.2
2017-10-06T05:50:56.030Z,10.2
2017-10-06T05:52:06.289Z,10.25
2017-10-06T05:53:16.542Z,10.3
2017-10-06T05:54:26.784Z,10.34
2017-10-06T05:55:36.985Z,10.2
2017-10-06T05:56:46.605Z,10.18
2017-10-06T05:57:56.897Z,10.25
2017-10-06T05:59:06.841Z,10.24
2017-10-06T06:00:17.084Z,10.33
2017-10-06T06:01:27.595Z,10.36
2017-10-06T06:02:37.872Z,10.25
2017-10-06T06:03:47.840Z,10.39
2017-10-06T06:04:58.113Z,10.41
2017-10-06T06:06:08.277Z,10.33
2017-10-06T06:07:18.844Z,10.34
2017-10-06T06:08:29.124Z,10.31
2017-10-06T06:09:39.382Z,10.34
2017-10-06T06:10:49.337Z,10.38
2017-10-06T06:11:59.598Z,10.39
2017-10-06T06:13:10.113Z,10.39
2017-10-06T06:14:20.379Z,10.36
2017-10-06T06:15:30.327Z,10.38
2017-10-06T06:16:40.602Z,10.34
2017-10-06T06:17:50.857Z,10.42
2017-10-06T06:19:00.750Z,10.41
2017-10-06T06:20:10.438Z,10.49
2017-10-06T06:21:20.697Z,10.36
2017-10-06T06:22:30.957Z,10.39
2017-10-06T06:23:41.203Z,10.34
2017-10-06T06:24:51.393Z,10.33
2017-10-06T06:26:01.328Z,10.23
2017-10-06T06:27:11.271Z,10.36
2017-10-06T06:28:21.559Z,10.07
2017-10-06T06:29:32.078Z,10.09
2017-10-06T06:30:42.582Z,10.02
2017-10-06T06:31:52.535Z,9.99
2017-10-06T06:33:02.787Z,10
2017-10-06T06:34:12.721Z,10.02
2017-10-06T06:35:22.982Z,10.02
2017-10-06T06:36:33.503Z,10.06
2017-10-06T06:37:43.751Z,10.1
2017-10-06T06:38:53.700Z,10.09
2017-10-06T06:40:03.961Z,10.1
2017-10-06T06:41:14.217Z,10.18
2017-10-06T06:42:24.489Z,10.24
2017-10-06T06:43:34.424Z,10.27
2017-10-06T06:44:44.373Z,10.23
2017-10-06T06:45:54.658Z,10.18
2017-10-06T06:47:04.591Z,10.21
2017-10-06T06:48:15.143Z,10.25
2017-10-06T06:49:25.418Z,10.34
2017-10-06T06:50:35.666Z,10.39
2017-10-06T06:51:46.225Z,10.36
2017-10-06T06:52:56.525Z,10.36
2017-10-06T06:54:07.021Z,10.39
2017-10-06T06:55:17.275Z,10.39
2017-10-06T06:56:27.545Z,10.39
2017-10-06T06:57:37.803Z,10.39
2017-10-06T06:58:47.762Z,10.43
2017-10-06T06:59:58.303Z,10.39
2017-10-06T07:01:08.594Z,10.39
2017-10-06T07:02:18.849Z,10.51
2017-10-06T07:03:29.109Z,10.55
2017-10-06T07:04:38.744Z,10.55
2017-10-06T07:05:49.256Z,10.51
2017-10-06T07:06:58.886Z,10.51
2017-10-06T07:08:08.840Z,10.53
2017-10-06T07:09:19.108Z,10.64
2017-10-06T07:10:29.375Z,10.53
2017-10-06T07:11:39.560Z,10.45
2017-10-06T07:12:49.520Z,10.59
2017-10-06T07:13:59.793Z,10.51
2017-10-06T07:15:09.740Z,10.59
2017-10-06T07:16:20.000Z,10.53
2017-10-06T07:17:29.903Z,10.58
2017-10-06T07:18:40.209Z,10.49
2017-10-06T07:19:50.485Z,10.45
2017-10-06T07:21:00.741Z,10.34
2017-10-06T07:22:11.000Z,10.25
2017-10-06T07:23:21.516Z,10.23
2017-10-06T07:24:31.485Z,10.13
2017-10-06T07:25:41.775Z,10.02
2017-10-06T07:26:51.721Z,9.97
2017-10-06T07:28:01.978Z,9.92
2017-10-06T07:29:12.502Z,9.91
2017-10-06T07:30:22.136Z,9.8
2017-10-06T07:31:32.391Z,9.84
2017-10-06T07:32:42.324Z,9.84
2017-10-06T07:33:52.278Z,9.81
2017-10-06T07:35:02.477Z,9.84
2017-10-06T07:36:12.431Z,9.82
2017-10-06T07:37:22.411Z,9.8
2017-10-06T07:38:32.044Z,9.81
2017-10-06T07:39:42.311Z,9.82
2017-10-06T07:40:52.828Z,9.82
2017-10-06T07:42:02.757Z,9.84
2017-10-06T07:43:12.694Z,9.8
2017-10-06T07:44:22.942Z,9.81
2017-10-06T07:45:33.229Z,9.73
2017-10-06T07:46:43.399Z,9.69
2017-10-06T07:47:53.683Z,9.69
2017-10-06T07:49:03.947Z,9.7
2017-10-06T07:50:13.910Z,9.73
2017-10-06T07:51:23.864Z,9.72
2017-10-06T07:52:34.368Z,9.7
2017-10-06T07:53:44.617Z,9.72
2017-10-06T07:54:54.867Z,9.67
2017-10-06T07:56:05.117Z,9.69
2017-10-06T07:57:15.367Z,9.66
2017-10-06T07:58:25.553Z,9.56
2017-10-06T07:59:35.174Z,9.62
2017-10-06T08:00:45.484Z,9.64
2017-10-06T08:01:55.746Z,9.64
2017-10-06T08:03:05.696Z,9.55
2017-10-06T08:04:16.226Z,9.55
2017-10-06T08:05:26.163Z,9.62
2017-10-06T08:06:36.437Z,9.7
2017-10-06T08:07:46.710Z,9.63
2017-10-06T08:08:56.973Z,9.67
2017-10-06T08:10:07.530Z,9.72
2017-10-06T08:11:17.769Z,9.66
2017-10-06T08:12:27.730Z,9.72
2017-10-06T08:13:37.985Z,9.74
2017-10-06T08:14:47.940Z,9.69
2017-10-06T08:15:58.452Z,9.72
2017-10-06T08:17:08.709Z,9.72
2017-10-06T08:18:19.013Z,9.84
2017-10-06T08:19:29.012Z,9.85
2017-10-06T08:20:38.945Z,9.84
2017-10-06T08:21:49.512Z,9.84
2017-10-06T08:22:59.752Z,9.88
2017-10-06T08:24:10.002Z,9.9
2017-10-06T08:25:20.260Z,9.85
2017-10-06T08:26:30.523Z,9.94
2017-10-06T08:27:41.097Z,10
2017-10-06T08:28:51.343Z,10.02
2017-10-06T08:30:01.642Z,9.97
2017-10-06T08:31:11.900Z,10
2017-10-06T08:32:22.171Z,10.05
2017-10-06T08:33:32.685Z,10.09
2017-10-06T08:34:42.935Z,10.09
2017-10-06T08:35:52.563Z,10.18
2017-10-06T08:37:02.865Z,10.18
2017-10-06T08:38:13.110Z,10.23
2017-10-06T08:39:23.302Z,10.24
2017-10-06T08:40:33.245Z,10.42
2017-10-06T08:41:43.506Z,10.34
2017-10-06T08:42:53.763Z,10.34
2017-10-06T08:44:04.054Z,10.39
2017-10-06T08:45:14.577Z,10.39
2017-10-06T08:46:24.542Z,10.41
2017-10-06T08:47:34.783Z,10.45
2017-10-06T08:48:45.023Z,10.42
2017-10-06T08:49:55.289Z,10.49
2017-10-06T08:51:05.815Z,10.48
2017-10-06T08:52:16.082Z,10.51
2017-10-06T08:53:26.342Z,10.53
2017-10-06T08:54:36.601Z,10.57
2017-10-06T08:55:46.883Z,10.53
2017-10-06T08:56:57.391Z,10.62
2017-10-06T08:58:07.689Z,10.65
2017-10-06T08:59:17.654Z,10.64
2017-10-06T09:00:27.915Z,10.62
2017-10-06T09:01:38.202Z,10.64
2017-10-06T09:02:48.700Z,10.71
2017-10-06T09:03:58.958Z,10.75
2017-10-06T09:05:09.209Z,10.76
2017-10-06T09:06:19.461Z,10.76
2017-10-06T09:07:29.409Z,10.77
2017-10-06T09:08:39.911Z,10.79
2017-10-06T09:09:49.551Z,10.71
2017-10-06T09:10:59.479Z,10.77
2017-10-06T09:12:09.769Z,10.75
2017-10-06T09:13:20.036Z,10.8
2017-10-06T09:14:30.603Z,10.75
2017-10-06T09:15:40.537Z,10.84
2017-10-06T09:16:50.190Z,10.87
2017-10-06T09:18:00.166Z,10.86
2017-10-06T09:19:10.421Z,10.87
2017-10-06T09:20:20.930Z,10.9
2017-10-06T09:21:30.864Z,10.97
2017-10-06T09:22:40.796Z,11.07
2017-10-06T09:23:51.062Z,11.05
2017-10-06T09:25:01.016Z,11.04
2017-10-06T09:26:11.530Z,11.15
2017-10-06T09:27:21.780Z,11.13
2017-10-06T09:28:31.413Z,11.12
2017-10-06T09:29:41.670Z,11.2
2017-10-06T09:30:51.608Z,11.19
2017-10-06T09:32:02.119Z,11.25
2017-10-06T09:33:12.074Z,11.27
2017-10-06T09:34:22.371Z,11.27
2017-10-06T09:35:32.642Z,11.38
2017-10-06T09:36:42.896Z,11.41
2017-10-06T09:37:53.462Z,11.45
2017-10-06T09:39:03.716Z,11.41
2017-10-06T09:40:13.670Z,11.44
2017-10-06T09:41:23.656Z,11.43
2017-10-06T09:42:33.616Z,11.45
2017-10-06T09:43:44.116Z,11.44
2017-10-06T09:44:54.379Z,11.48
2017-10-06T09:46:04.323Z,11.4
2017-10-06T09:47:14.574Z,11.35
2017-10-06T09:48:24.772Z,11.3
2017-10-06T09:49:34.376Z,11.23
2017-10-06T09:50:44.647Z,11.25
2017-10-06T09:51:54.911Z,11.2
2017-10-06T09:53:05.450Z,11.19
2017-10-06T09:54:15.401Z,11.2
2017-10-06T09:55:25.614Z,11.25
2017-10-06T09:56:35.767Z,11.18
2017-10-06T09:57:45.726Z,11.2
2017-10-06T09:58:56.010Z,11.15
2017-10-06T10:00:05.639Z,11.07
2017-10-06T10:01:16.167Z,10.98
2017-10-06T10:02:26.440Z,10.95
2017-10-06T10:03:36.406Z,10.98
2017-10-06T10:04:46.700Z,10.97
2017-10-06T10:05:56.971Z,10.87
2017-10-06T10:07:07.180Z,11.07
2017-10-06T10:08:17.504Z,11.04
2017-10-06T10:09:27.817Z,11.04
2017-10-06T10:10:37.769Z,11.04
2017-10-06T10:11:48.062Z,11.02
2017-10-06T10:12:58.589Z,11.1
2017-10-06T10:14:08.863Z,11.07
2017-10-06T10:15:19.155Z,11.07
2017-10-06T10:16:29.464Z,10.95
2017-10-06T10:17:39.428Z,10.83
2017-10-06T10:18:49.956Z,10.79
2017-10-06T10:20:00.233Z,10.72
2017-10-06T10:21:10.552Z,10.76
2017-10-06T10:22:21.083Z,10.76
2017-10-06T10:23:31.367Z,10.76
2017-10-06T10:24:41.930Z,10.76
2017-10-06T10:25:51.862Z,10.71
2017-10-06T10:27:01.812Z,10.68
2017-10-06T10:28:11.767Z,10.62
2017-10-06T10:29:21.421Z,10.59
2017-10-06T10:30:31.992Z,10.55
2017-10-06T10:31:41.921Z,10.58
2017-10-06T10:32:51.869Z,10.49
2017-10-06T10:34:02.136Z,10.45
2017-10-06T10:35:12.420Z,10.41
2017-10-06T10:36:22.984Z,10.38
2017-10-06T10:37:32.610Z,10.38
2017-10-06T10:38:42.864Z,10.36
2017-10-06T10:39:52.823Z,10.39
2017-10-06T10:41:03.108Z,10.38
2017-10-06T10:42:13.627Z,10.33
2017-10-06T10:43:23.901Z,10.38
2017-10-06T10:44:34.163Z,10.39
2017-10-06T10:45:44.124Z,10.39
2017-10-06T10:46:54.064Z,10.39
2017-10-06T10:48:04.593Z,10.38
2017-10-06T10:49:14.867Z,10.43
2017-10-06T10:50:25.131Z,10.42
2017-10-06T10:51:35.058Z,10.38
2017-10-06T10:52:44.675Z,10.49
2017-10-06T10:53:54.869Z,10.58
2017-10-06T10:55:04.817Z,10.57
2017-10-06T10:56:14.440Z,10.62
2017-10-06T10:57:24.701Z,10.68
2017-10-06T10:58:34.981Z,10.84
2017-10-06T10:59:45.545Z,10.75
2017-10-06T11:00:55.795Z,10.87
2017-10-06T11:02:06.065Z,10.95
2017-10-06T11:03:16.333Z,10.95
2017-10-06T11:04:26.611Z,11
2017-10-06T11:05:36.817Z,11.08
2017-10-06T11:06:47.092Z,11.22
2017-10-06T11:07:57.340Z,11.3
2017-10-06T11:09:07.596Z,11.33
2017-10-06T11:10:17.851Z,11.4
2017-10-06T11:11:28.375Z,11.55
2017-10-06T11:12:38.635Z,11.56
2017-10-06T11:13:48.903Z,11.62
2017-10-06T11:14:59.158Z,11.68
2017-10-06T11:16:09.414Z,11.73
2017-10-06T11:17:19.957Z,11.76
2017-10-06T11:18:30.209Z,11.83
2017-10-06T11:19:40.160Z,11.96
2017-10-06T11:20:50.418Z,11.76
2017-10-06T11:22:00.351Z,11.76
2017-10-06T11:23:10.872Z,11.7
2017-10-06T11:24:20.820Z,11.53
2017-10-06T11:25:31.066Z,11.44
2017-10-06T11:26:41.337Z,11.38
2017-10-06T11:27:51.606Z,11.38
2017-10-06T11:29:01.480Z,11.49
2017-10-06T11:30:11.422Z,11.49
2017-10-06T11:31:21.674Z,11.56
2017-10-06T11:32:31.943Z,11.6
2017-10-06T11:33:42.200Z,11.74
2017-10-06T11:34:52.710Z,11.77
2017-10-06T11:36:02.706Z,11.76
2017-10-06T11:37:12.661Z,11.96
2017-10-06T11:38:22.942Z,12
2017-10-06T11:39:33.238Z,12.02
2017-10-06T11:40:43.780Z,12.02
2017-10-06T11:41:54.055Z,11.95
2017-10-06T11:43:04.365Z,11.95
2017-10-06T11:44:14.638Z,11.95
2017-10-06T11:45:24.910Z,11.77
2017-10-06T11:46:35.432Z,11.83
2017-10-06T11:47:45.386Z,11.7
2017-10-06T11:48:55.690Z,11.65
2017-10-06T11:50:05.949Z,11.71
2017-10-06T11:51:16.220Z,11.78
2017-10-06T11:52:26.475Z,11.83
2017-10-06T11:53:37.041Z,11.83
2017-10-06T11:54:47.354Z,11.96
2017-10-06T11:55:56.978Z,11.93
2017-10-06T11:57:07.241Z,11.99
2017-10-06T11:58:17.888Z,11.99
2017-10-06T11:59:27.835Z,12.08
2017-10-06T12:00:37.823Z,12.26
2017-10-06T12:01:48.170Z,12.23
2017-10-06T12:02:58.446Z,12.32
2017-10-06T12:04:08.960Z,12.21
2017-10-06T12:05:19.225Z,12.3
2017-10-06T12:06:29.518Z,12.07
2017-10-06T12:07:39.495Z,11.93
2017-10-06T12:08:49.433Z,11.67
2017-10-06T12:09:59.959Z,11.34
2017-10-06T12:11:10.224Z,11.15
2017-10-06T12:12:20.474Z,11.07
2017-10-06T12:13:30.423Z,10.94
2017-10-06T12:14:40.694Z,10.86
2017-10-06T12:15:51.211Z,10.87
2017-10-06T12:17:01.464Z,10.87
2017-10-06T12:18:11.728Z,10.86
2017-10-06T12:19:21.990Z,10.86
2017-10-06T12:20:32.251Z,11.01
2017-10-06T12:21:42.483Z,11.02
2017-10-06T12:22:52.447Z,11
2017-10-06T12:24:02.730Z,11.08
2017-10-06T12:25:12.657Z,11.13
2017-10-06T12:26:22.620Z,11.18
2017-10-06T12:27:33.153Z,11.23
2017-10-06T12:28:43.393Z,11.19
2017-10-06T12:29:53.656Z,11.38
2017-10-06T12:31:03.587Z,11.48
2017-10-06T12:32:13.836Z,11.49
2017-10-06T12:33:24.451Z,11.53
2017-10-06T12:34:34.702Z,11.49
2017-10-06T12:35:44.647Z,11.6
2017-10-06T12:36:54.904Z,11.6
2017-10-06T12:38:05.169Z,11.68
2017-10-06T12:39:15.802Z,11.77
2017-10-06T12:40:26.067Z,11.8
2017-10-06T12:41:36.353Z,11.83
2017-10-06T12:42:46.291Z,11.97
2017-10-06T12:43:56.561Z,12.1
2017-10-06T12:45:07.077Z,12.1
2017-10-06T12:46:17.374Z,12.28
2017-10-06T12:47:27.312Z,12.36
2017-10-06T12:48:37.271Z,12.44
2017-10-06T12:49:47.518Z,12.7
2017-10-06T12:50:57.407Z,12.76
2017-10-06T12:52:07.681Z,12.78
2017-10-06T12:53:17.654Z,12.83
2017-10-06T12:54:27.932Z,12.83
2017-10-06T12:55:38.192Z,12.98
2017-10-06T12:56:48.804Z,13.13
2017-10-06T12:57:59.062Z,13.26
2017-10-06T12:59:09.335Z,13.2
2017-10-06T13:00:18.964Z,13.28
2017-10-06T13:01:29.220Z,13.3
2017-10-06T13:02:39.213Z,13.39
2017-10-06T13:03:48.837Z,13.37
2017-10-06T13:04:59.117Z,13.49
2017-10-06T13:06:09.388Z,13.67
2017-10-06T13:07:19.338Z,13.75
2017-10-06T13:08:29.905Z,13.94
2017-10-06T13:09:40.176Z,14.04
2017-10-06T13:10:50.440Z,14.26
2017-10-06T13:12:00.776Z,14.13
2017-10-06T13:13:11.068Z,14.03
2017-10-06T13:14:21.624Z,14.15
2017-10-06T13:15:31.894Z,14.23
2017-10-06T13:16:42.160Z,14.28
2017-10-06T13:17:52.442Z,14.25
2017-10-06T13:19:02.712Z,14.15
2017-10-06T13:20:12.896Z,14.11
2017-10-06T13:21:23.170Z,14.03
2017-10-06T13:22:33.436Z,14.01
2017-10-06T13:23:43.706Z,13.95
2017-10-06T13:24:53.669Z,13.97
2017-10-06T13:26:04.177Z,13.71
2017-10-06T13:27:14.125Z,13.28
2017-10-06T13:28:24.421Z,12.94
2017-10-06T13:29:34.372Z,12.5
2017-10-06T13:30:44.629Z,12.2
2017-10-06T13:31:54.931Z,11.97
2017-10-06T13:33:05.188Z,11.67
2017-10-06T13:34:14.834Z,11.31
2017-10-06T13:35:25.089Z,11.1
2017-10-06T13:36:35.349Z,10.98
2017-10-06T13:37:45.988Z,10.8
2017-10-06T13:38:55.956Z,10.59
2017-10-06T13:40:06.208Z,10.53
2017-10-06T13:41:16.499Z,10.34
2017-10-06T13:42:26.746Z,10.23
2017-10-06T13:43:37.032Z,10.3
2017-10-06T13:44:46.969Z,10.18
2017-10-06T13:45:57.225Z,10.06
2017-10-06T13:47:07.495Z,10.02
2017-10-06T13:48:17.125Z,10
2017-10-06T13:49:27.367Z,9.87
2017-10-06T13:50:37.321Z,9.84
2017-10-06T13:51:46.980Z,9.82
2017-10-06T13:52:57.243Z,9.8
2017-10-06T13:54:07.496Z,9.81
2017-10-06T13:55:17.997Z,9.81
2017-10-06T13:56:28.257Z,9.81
2017-10-06T13:57:38.204Z,9.72
2017-10-06T13:58:48.463Z,9.7
2017-10-06T13:59:58.720Z,9.74
2017-10-06T14:01:09.565Z,9.73
2017-10-06T14:02:19.849Z,9.84
2017-10-06T14:03:30.109Z,9.81
2017-10-06T14:04:40.394Z,9.81
2017-10-06T14:05:50.641Z,9.84
2017-10-06T14:07:00.935Z,9.84
2017-10-06T14:08:10.592Z,9.84
2017-10-06T14:09:20.847Z,9.84
2017-10-06T14:10:31.108Z,9.74
2017-10-06T14:11:41.374Z,9.52
2017-10-06T14:12:52.026Z,9.55
2017-10-06T14:14:01.649Z,9.51
2017-10-06T14:15:11.925Z,9.4
2017-10-06T14:16:21.852Z,9.45
2017-10-06T14:17:32.118Z,9.58
2017-10-06T14:18:42.640Z,9.49
2017-10-06T14:19:52.589Z,9.55
2017-10-06T14:21:02.872Z,9.62
2017-10-06T14:22:12.806Z,9.56
2017-10-06T14:23:23.046Z,9.56
2017-10-06T14:24:33.613Z,9.63
2017-10-06T14:25:43.566Z,9.63
2017-10-06T14:26:53.824Z,9.72
2017-10-06T14:28:03.777Z,9.67
2017-10-06T14:29:13.700Z,9.72
2017-10-06T14:30:23.681Z,9.84
2017-10-06T14:31:33.938Z,9.81
2017-10-06T14:32:43.572Z,9.82
2017-10-06T14:33:53.830Z,9.9
2017-10-06T14:35:03.775Z,10
2017-10-06T14:36:14.345Z,9.99
2017-10-06T14:37:24.288Z,9.99
2017-10-06T14:38:34.540Z,9.97
2017-10-06T14:39:44.793Z,10.02
2017-10-06T14:40:54.731Z,10.02
2017-10-06T14:42:04.668Z,9.97
2017-10-06T14:43:14.935Z,9.99
2017-10-06T14:44:25.189Z,9.99
2017-10-06T14:45:35.445Z,10.09
2017-10-06T14:46:45.733Z,10.09
2017-10-06T14:47:56.103Z,10.15
2017-10-06T14:49:06.385Z,10.33
2017-10-06T14:50:16.644Z,10.38
2017-10-06T14:51:26.920Z,10.36
2017-10-06T14:52:37.186Z,10.41
2017-10-06T14:53:47.472Z,10.48
2017-10-06T14:54:57.726Z,10.43
2017-10-06T14:56:07.355Z,10.42
2017-10-06T14:57:17.005Z,10.46
2017-10-06T14:58:27.264Z,10.58
2017-10-06T14:59:37.764Z,10.51
2017-10-06T15:00:48.005Z,10.55
2017-10-06T15:01:58.268Z,10.59
2017-10-06T15:03:08.548Z,10.49
2017-10-06T15:04:18.475Z,10.59
2017-10-06T15:05:29.043Z,10.57
2017-10-06T15:06:39.302Z,10.49
2017-10-06T15:07:49.545Z,10.49
2017-10-06T15:08:59.492Z,10.51
2017-10-06T15:10:09.112Z,10.53
2017-10-06T15:11:19.329Z,10.57
2017-10-06T15:12:28.956Z,10.62